createdAt,value
2022-07-25T00:00:27.636Z,24.97
2022-07-25T00:02:54.241Z,24.99
2022-07-25T00:05:20.920Z,24.90
2022-07-25T00:07:47.905Z,24.93
2022-07-25T00:10:17.326Z,24.90
2022-07-25T00:12:46.536Z,24.87
2022-07-25T00:15:13.492Z,24.56
2022-07-25T00:17:42.794Z,24.81
2022-07-25T00:20:14.963Z,24.78
2022-07-25T00:22:43.832Z,24.70
2022-07-25T00:25:12.580Z,24.71
2022-07-25T00:27:41.573Z,24.66
2022-07-25T00:30:08.823Z,24.63
2022-07-25T00:32:35.387Z,24.59
2022-07-25T00:35:02.011Z,24.50
2022-07-25T00:37:33.443Z,24.52
2022-07-25T00:40:00.009Z,24.48
2022-07-25T00:42:26.567Z,24.39
2022-07-25T00:44:55.511Z,24.40
2022-07-25T00:47:22.168Z,24.38
2022-07-25T00:49:48.760Z,24.32
2022-07-25T00:52:15.459Z,24.32
2022-07-25T00:54:44.743Z,24.28
2022-07-25T00:57:11.817Z,24.26
2022-07-25T00:59:38.470Z,24.22
2022-07-25T01:02:07.728Z,24.19
2022-07-25T01:04:34.321Z,24.13
2022-07-25T01:07:01.258Z,24.14
2022-07-25T01:09:28.202Z,24.11
2022-07-25T01:11:57.141Z,24.09
2022-07-25T01:14:23.723Z,24.06
2022-07-25T01:16:52.740Z,24.03
2022-07-25T01:19:22.387Z,24.00
2022-07-25T01:21:49.050Z,23.99
2022-07-25T01:24:15.629Z,23.98
2022-07-25T01:26:42.266Z,23.87
2022-07-25T01:29:08.866Z,23.93
2022-07-25T01:31:35.573Z,23.91
2022-07-25T01:34:04.776Z,23.89
2022-07-25T01:36:31.725Z,23.88
2022-07-25T01:39:01.041Z,23.87
2022-07-25T01:41:27.592Z,23.86
2022-07-25T01:43:54.185Z,23.85
2022-07-25T01:46:20.864Z,23.83
2022-07-25T01:48:47.574Z,23.78
2022-07-25T01:51:14.310Z,23.77
2022-07-25T01:53:43.134Z,23.72
2022-07-25T01:56:14.301Z,23.61
2022-07-25T01:58:40.931Z,23.71
2022-07-25T02:01:07.551Z,23.69
2022-07-25T02:03:34.307Z,23.69
2022-07-25T02:06:06.592Z,23.69
2022-07-25T02:08:33.474Z,23.68
2022-07-25T02:11:00.594Z,23.51
2022-07-25T02:13:27.321Z,23.66
2022-07-25T02:15:54.009Z,23.66
2022-07-25T02:18:20.862Z,23.66
2022-07-25T02:20:49.805Z,23.44
2022-07-25T02:23:16.444Z,23.60
2022-07-25T02:25:43.188Z,23.58
2022-07-25T02:28:10.488Z,23.59
2022-07-25T02:30:38.197Z,23.57
2022-07-25T02:33:04.919Z,23.54
2022-07-25T02:35:31.629Z,23.40
2022-07-25T02:37:58.249Z,23.48
2022-07-25T02:40:24.867Z,23.45
2022-07-25T02:42:51.414Z,23.39
2022-07-25T02:45:18.301Z,23.37
2022-07-25T02:47:44.934Z,23.34
2022-07-25T02:50:14.576Z,23.29
2022-07-25T02:52:41.655Z,23.05
2022-07-25T02:55:09.883Z,23.20
2022-07-25T02:57:36.659Z,23.20
2022-07-25T03:00:06.838Z,23.16
2022-07-25T03:02:35.640Z,23.10
2022-07-25T03:05:03.025Z,22.88
2022-07-25T03:07:29.660Z,23.03
2022-07-25T03:09:56.927Z,22.98
2022-07-25T03:12:25.790Z,22.96
2022-07-25T03:14:52.352Z,22.88
2022-07-25T03:17:18.885Z,22.90
2022-07-25T03:19:45.496Z,22.87
2022-07-25T03:22:12.057Z,22.84
2022-07-25T03:24:41.120Z,22.83
2022-07-25T03:27:07.758Z,22.80
2022-07-25T03:29:34.346Z,22.80
2022-07-25T03:32:03.196Z,22.76
2022-07-25T03:34:32.501Z,22.75
2022-07-25T03:37:00.340Z,22.74
2022-07-25T03:39:27.685Z,22.69
2022-07-25T03:41:55.206Z,22.68
2022-07-25T03:44:23.729Z,22.67
2022-07-25T03:46:52.644Z,22.67
2022-07-25T03:49:19.350Z,22.65
2022-07-25T03:51:45.956Z,22.61
2022-07-25T03:54:15.330Z,22.62
2022-07-25T03:56:58.867Z,22.61
2022-07-25T03:59:25.442Z,22.60
2022-07-25T04:01:52.601Z,22.59
2022-07-25T04:04:24.439Z,22.61
2022-07-25T04:06:50.987Z,22.58
2022-07-25T04:09:17.683Z,22.63
2022-07-25T04:11:49.055Z,22.59
2022-07-25T04:14:16.596Z,22.67
2022-07-25T04:16:43.216Z,22.69
2022-07-25T04:19:10.631Z,22.73
2022-07-25T04:21:37.223Z,22.74
2022-07-25T04:24:06.625Z,22.77
2022-07-25T04:26:35.659Z,22.81
2022-07-25T04:29:04.853Z,22.82
2022-07-25T04:31:31.426Z,22.85
2022-07-25T04:33:58.805Z,22.91
2022-07-25T04:36:30.466Z,22.95
2022-07-25T04:38:57.210Z,22.95
2022-07-25T04:41:23.892Z,23.00
2022-07-25T04:43:50.487Z,23.05
2022-07-25T04:46:20.825Z,23.11
2022-07-25T04:48:48.226Z,23.16
2022-07-25T04:51:15.630Z,23.25
2022-07-25T04:53:42.320Z,23.33
2022-07-25T04:56:09.069Z,23.40
2022-07-25T04:58:35.788Z,23.44
2022-07-25T05:01:02.415Z,23.42
2022-07-25T05:03:31.617Z,23.55
2022-07-25T05:05:58.294Z,23.71
2022-07-25T05:08:24.944Z,23.78
2022-07-25T05:10:51.524Z,23.81
2022-07-25T05:13:22.882Z,23.90
2022-07-25T05:15:49.405Z,23.97
2022-07-25T05:18:15.977Z,24.01
2022-07-25T05:20:42.612Z,24.11
2022-07-25T05:23:09.242Z,24.17
2022-07-25T05:25:35.801Z,24.27
2022-07-25T05:28:03.023Z,24.35
2022-07-25T05:30:29.951Z,24.58
2022-07-25T05:32:58.773Z,24.93
2022-07-25T05:35:25.361Z,25.01
2022-07-25T05:37:52.006Z,25.00
2022-07-25T05:40:19.534Z,24.96
2022-07-25T05:42:46.081Z,24.90
2022-07-25T05:45:12.763Z,24.82
2022-07-25T05:47:39.345Z,24.80
2022-07-25T05:50:06.361Z,24.73
2022-07-25T05:52:35.173Z,24.80
2022-07-25T05:55:01.898Z,24.97
2022-07-25T05:57:28.516Z,25.34
2022-07-25T05:59:55.046Z,25.43
2022-07-25T06:02:24.811Z,25.21
2022-07-25T06:04:51.565Z,25.02
2022-07-25T06:07:20.304Z,25.05
2022-07-25T06:09:46.935Z,25.14
2022-07-25T06:12:16.037Z,25.14
2022-07-25T06:14:42.774Z,25.36
2022-07-25T06:17:09.497Z,25.68
2022-07-25T06:19:36.046Z,26.08
2022-07-25T06:22:02.623Z,26.15
2022-07-25T06:24:29.209Z,26.16
2022-07-25T06:26:55.795Z,25.75
2022-07-25T06:29:24.688Z,25.48
2022-07-25T06:31:51.299Z,25.34
2022-07-25T06:34:18.025Z,24.83
2022-07-25T06:36:44.581Z,25.07
2022-07-25T06:39:11.411Z,25.14
2022-07-25T06:41:38.086Z,25.44
2022-07-25T06:44:07.435Z,25.80
2022-07-25T06:46:34.485Z,25.69
2022-07-25T06:49:01.209Z,25.63
2022-07-25T06:51:30.349Z,25.77
2022-07-25T06:53:56.962Z,25.67
2022-07-25T06:56:23.729Z,25.46
2022-07-25T06:58:53.379Z,25.41
2022-07-25T07:01:20.038Z,25.31
2022-07-25T07:03:46.851Z,25.19
2022-07-25T07:06:15.788Z,25.04
2022-07-25T07:08:42.376Z,25.14
2022-07-25T07:11:09.079Z,25.27
2022-07-25T07:13:35.671Z,25.81
2022-07-25T07:16:02.821Z,26.17
2022-07-25T07:18:29.472Z,26.71
2022-07-25T07:20:56.064Z,27.82
2022-07-25T07:23:22.768Z,27.68
2022-07-25T07:25:53.790Z,27.63
2022-07-25T07:28:20.521Z,27.00
2022-07-25T07:33:39.474Z,26.44
2022-07-25T07:36:06.318Z,26.20
2022-07-25T07:38:32.996Z,26.10
2022-07-25T07:40:59.583Z,25.95
2022-07-25T07:43:29.894Z,25.91
2022-07-25T07:46:03.178Z,25.83
2022-07-25T07:48:31.273Z,25.95
2022-07-25T07:51:02.018Z,26.05
2022-07-25T07:53:47.945Z,26.43
2022-07-25T07:56:15.875Z,27.15
2022-07-25T07:58:47.282Z,29.45
2022-07-25T08:01:14.457Z,29.61
2022-07-25T08:03:41.034Z,29.38
2022-07-25T08:06:07.839Z,29.19
2022-07-25T08:08:34.416Z,29.06
2022-07-25T08:11:01.030Z,28.59
2022-07-25T08:13:34.029Z,28.27
2022-07-25T08:16:03.696Z,28.29
2022-07-25T08:18:32.859Z,29.51
2022-07-25T08:21:06.125Z,31.50
2022-07-25T08:23:38.950Z,31.73
2022-07-25T08:26:06.647Z,31.59
2022-07-25T08:28:33.185Z,30.74
2022-07-25T08:30:59.876Z,31.26
2022-07-25T08:33:28.884Z,33.01
2022-07-25T08:36:06.222Z,32.68
2022-07-25T08:38:34.586Z,30.99
2022-07-25T08:41:03.044Z,30.89
2022-07-25T08:43:33.087Z,30.11
2022-07-25T08:46:05.189Z,30.00
2022-07-25T08:48:31.911Z,30.27
2022-07-25T08:51:01.725Z,29.94
2022-07-25T08:53:33.210Z,29.83
2022-07-25T08:56:04.209Z,29.71
2022-07-25T08:58:34.823Z,29.59
2022-07-25T09:01:01.499Z,31.83
2022-07-25T09:03:28.611Z,32.15
2022-07-25T09:05:55.461Z,32.66
2022-07-25T09:08:22.020Z,32.05
2022-07-25T09:10:51.389Z,32.06
2022-07-25T09:13:20.393Z,31.84
2022-07-25T09:15:49.542Z,31.11
2022-07-25T09:18:21.480Z,31.97
2022-07-25T09:20:52.237Z,31.86
2022-07-25T09:23:36.222Z,32.59
2022-07-25T09:26:14.257Z,32.48
2022-07-25T09:28:47.327Z,32.64
2022-07-25T09:31:15.373Z,31.35
2022-07-25T09:33:56.496Z,31.40
2022-07-25T09:36:26.209Z,32.21
2022-07-25T09:39:04.488Z,32.60
2022-07-25T09:41:51.066Z,32.98
2022-07-25T09:44:24.239Z,33.11
2022-07-25T09:46:50.909Z,33.00
2022-07-25T09:49:17.609Z,33.01
2022-07-25T09:51:47.348Z,32.28
2022-07-25T09:54:14.405Z,32.16
2022-07-25T09:56:40.967Z,32.54
2022-07-25T09:59:07.609Z,32.78
2022-07-25T10:01:42.861Z,32.75
2022-07-25T10:04:30.904Z,32.72
2022-07-25T10:07:07.645Z,32.49
2022-07-25T10:09:34.394Z,31.86
2022-07-25T10:12:11.463Z,31.66
2022-07-25T10:14:41.524Z,32.09
2022-07-25T10:17:19.996Z,32.40
2022-07-25T10:19:54.143Z,32.12
2022-07-25T10:22:46.498Z,31.99
2022-07-25T10:25:15.659Z,31.94
2022-07-25T10:27:50.643Z,32.10
2022-07-25T10:30:29.365Z,32.13
2022-07-25T10:33:01.073Z,32.16
2022-07-25T10:35:28.399Z,32.26
2022-07-25T10:37:57.385Z,32.33
2022-07-25T10:40:29.899Z,32.41
2022-07-25T10:43:17.676Z,32.43
2022-07-25T10:46:11.309Z,32.92
2022-07-25T10:48:38.206Z,33.13
2022-07-25T10:51:11.773Z,33.34
2022-07-25T10:53:43.886Z,33.14
2022-07-25T10:56:15.855Z,32.92
2022-07-25T10:59:01.772Z,32.82
2022-07-25T11:01:32.393Z,32.42
2022-07-25T11:04:02.087Z,32.09
2022-07-25T11:06:40.138Z,31.79
2022-07-25T11:09:34.283Z,31.52
2022-07-25T11:12:01.397Z,31.29
2022-07-25T11:14:33.895Z,31.14
2022-07-25T11:17:22.378Z,31.05
2022-07-25T11:20:01.193Z,30.83
2022-07-25T11:22:29.870Z,30.62
2022-07-25T11:25:00.237Z,30.34
2022-07-25T11:27:32.089Z,30.14
2022-07-25T11:30:10.326Z,29.85
2022-07-25T11:32:43.989Z,29.55
2022-07-25T11:35:14.060Z,29.79
2022-07-25T11:37:44.259Z,29.83
2022-07-25T11:40:11.027Z,29.70
2022-07-25T11:42:54.582Z,29.57
2022-07-25T11:45:24.916Z,29.31
2022-07-25T11:48:15.309Z,29.18
2022-07-25T11:50:44.126Z,29.14
2022-07-25T11:53:14.733Z,28.94
2022-07-25T11:55:43.119Z,28.74
2022-07-25T11:58:12.907Z,28.65
2022-07-25T12:00:45.554Z,28.77
2022-07-25T12:03:20.488Z,29.04
2022-07-25T12:05:50.205Z,29.07
2022-07-25T12:08:22.402Z,28.78
2022-07-25T12:10:54.956Z,28.80
2022-07-25T12:13:25.056Z,28.91
2022-07-25T12:15:54.327Z,28.91
2022-07-25T12:18:20.965Z,28.72
2022-07-25T12:20:47.628Z,28.71
2022-07-25T12:23:14.903Z,28.57
2022-07-25T12:25:43.754Z,28.43
2022-07-25T12:28:11.529Z,28.05
2022-07-25T12:30:39.760Z,27.80
2022-07-25T12:33:07.062Z,27.53
2022-07-25T12:35:39.154Z,27.19
2022-07-25T12:38:05.877Z,26.99
2022-07-25T12:40:32.947Z,26.79
2022-07-25T12:43:00.138Z,26.66
2022-07-25T12:45:27.996Z,26.50
2022-07-25T12:47:55.016Z,26.50
2022-07-25T12:50:22.031Z,26.74
2022-07-25T12:52:48.723Z,27.35
2022-07-25T12:55:20.490Z,28.00
2022-07-25T12:57:47.318Z,28.44
2022-07-25T13:00:16.589Z,28.80
2022-07-25T13:02:43.552Z,29.01
2022-07-25T13:05:10.433Z,29.34
2022-07-25T13:07:37.136Z,29.34
2022-07-25T13:10:04.763Z,29.23
2022-07-25T13:12:31.526Z,29.23
2022-07-25T13:14:58.383Z,29.35
2022-07-25T13:17:28.023Z,29.12
2022-07-25T13:19:55.654Z,29.06
2022-07-25T13:22:24.521Z,28.87
2022-07-25T13:24:51.340Z,28.44
2022-07-25T13:27:19.670Z,28.06
2022-07-25T13:29:47.067Z,27.82
2022-07-25T13:32:13.891Z,27.83
2022-07-25T13:34:40.491Z,27.86
2022-07-25T13:37:07.092Z,28.00
2022-07-25T13:39:35.771Z,28.35
2022-07-25T13:42:03.131Z,28.45
2022-07-25T13:44:29.677Z,28.74
2022-07-25T13:46:57.554Z,28.50
2022-07-25T13:49:24.876Z,28.57
2022-07-25T13:51:51.603Z,28.57
2022-07-25T13:54:18.179Z,28.87
2022-07-25T13:56:44.832Z,29.17
2022-07-25T13:59:20.530Z,29.36
2022-07-25T14:01:48.360Z,29.30
2022-07-25T14:04:17.341Z,29.04
2022-07-25T14:06:44.008Z,28.84
2022-07-25T14:09:11.169Z,28.49
2022-07-25T14:11:38.361Z,28.22
2022-07-25T14:14:07.169Z,27.97
2022-07-25T14:16:36.144Z,28.08
2022-07-25T14:19:02.963Z,28.38
2022-07-25T14:21:30.814Z,28.66
2022-07-25T14:23:57.730Z,28.57
2022-07-25T14:26:24.352Z,28.65
2022-07-25T14:28:51.072Z,28.51
2022-07-25T14:31:17.696Z,28.42
2022-07-25T14:33:50.141Z,28.40
2022-07-25T14:36:16.795Z,28.23
2022-07-25T14:38:47.234Z,28.12
2022-07-25T14:41:14.178Z,27.96
2022-07-25T14:43:43.664Z,27.91
2022-07-25T14:46:10.532Z,28.03
2022-07-25T14:48:40.266Z,27.96
2022-07-25T14:51:07.818Z,27.93
2022-07-25T14:53:37.362Z,27.95
2022-07-25T14:56:07.445Z,27.93
2022-07-25T14:58:34.325Z,28.00
2022-07-25T15:01:01.440Z,28.18
2022-07-25T15:03:28.101Z,28.16
2022-07-25T15:05:57.777Z,28.09
2022-07-25T15:08:24.334Z,27.96
2022-07-25T15:10:53.133Z,28.09
2022-07-25T15:13:34.954Z,28.13
2022-07-25T15:16:03.068Z,28.07
2022-07-25T15:18:29.709Z,27.98
2022-07-25T15:21:00.798Z,27.98
2022-07-25T15:23:30.387Z,28.02
2022-07-25T15:26:02.428Z,28.04
2022-07-25T15:28:33.950Z,28.03
2022-07-25T15:31:00.680Z,27.91
2022-07-25T15:33:29.770Z,27.93
2022-07-25T15:35:56.464Z,27.90
2022-07-25T15:38:23.824Z,27.83
2022-07-25T15:40:50.489Z,27.98
2022-07-25T15:43:17.178Z,27.93
2022-07-25T15:45:45.956Z,27.84
2022-07-25T15:48:14.997Z,27.78
2022-07-25T15:50:44.341Z,27.71
2022-07-25T15:53:12.153Z,27.65
2022-07-25T15:55:40.441Z,27.54
2022-07-25T15:58:09.565Z,27.53
2022-07-25T16:00:36.786Z,27.59
2022-07-25T16:03:09.051Z,27.43
2022-07-25T16:05:39.964Z,27.30
2022-07-25T16:08:08.476Z,27.26
2022-07-25T16:10:35.799Z,27.08
2022-07-25T16:13:02.566Z,27.10
2022-07-25T16:15:31.858Z,27.09
2022-07-25T16:18:02.687Z,27.04
2022-07-25T16:20:31.593Z,27.03
2022-07-25T16:22:59.228Z,26.97
2022-07-25T16:25:27.856Z,26.88
2022-07-25T16:27:58.763Z,26.67
2022-07-25T16:30:26.615Z,26.57
2022-07-25T16:32:53.610Z,26.49
2022-07-25T16:35:20.385Z,26.25
2022-07-25T16:37:46.981Z,26.35
2022-07-25T16:40:14.493Z,26.34
2022-07-25T16:42:41.217Z,26.29
2022-07-25T16:45:11.128Z,26.36
2022-07-25T16:47:39.669Z,26.49
2022-07-25T16:50:06.504Z,26.44
2022-07-25T16:52:33.092Z,26.38
2022-07-25T16:54:59.627Z,26.56
2022-07-25T16:57:26.164Z,26.60
2022-07-25T16:59:55.444Z,26.44
2022-07-25T17:02:27.622Z,26.39
2022-07-25T17:04:56.525Z,26.16
2022-07-25T17:07:23.262Z,26.30
2022-07-25T17:09:52.043Z,26.12
2022-07-25T17:12:18.949Z,25.92
2022-07-25T17:14:45.895Z,25.86
2022-07-25T17:17:12.839Z,25.72
2022-07-25T17:19:43.595Z,25.61
2022-07-25T17:22:10.971Z,25.51
2022-07-25T17:24:38.848Z,25.45
2022-07-25T17:27:07.566Z,25.32
2022-07-25T17:29:35.013Z,25.31
2022-07-25T17:32:01.903Z,25.08
2022-07-25T17:34:28.893Z,25.15
2022-07-25T17:36:55.529Z,25.07
2022-07-25T17:39:22.117Z,25.02
2022-07-25T17:41:49.256Z,24.88
2022-07-25T17:44:16.580Z,24.85
2022-07-25T17:46:43.810Z,24.71
2022-07-25T17:49:10.590Z,24.68
2022-07-25T17:51:37.229Z,24.66
2022-07-25T17:54:04.191Z,24.59
2022-07-25T17:56:30.958Z,24.54
2022-07-25T17:58:57.563Z,24.43
2022-07-25T18:01:24.271Z,24.33
2022-07-25T18:03:51.211Z,24.25
2022-07-25T18:06:20.423Z,24.18
2022-07-25T18:08:47.501Z,24.06
2022-07-25T18:11:14.515Z,24.07
2022-07-25T18:13:43.456Z,23.94
2022-07-25T18:16:10.435Z,23.61
2022-07-25T18:18:37.360Z,23.77
2022-07-25T18:21:06.409Z,23.73
2022-07-25T18:23:35.510Z,23.70
2022-07-25T18:26:02.095Z,23.69
2022-07-25T18:28:31.234Z,23.66
2022-07-25T18:31:00.200Z,23.60
2022-07-25T18:33:27.024Z,23.50
2022-07-25T18:35:56.975Z,23.62
2022-07-25T18:38:26.061Z,23.54
2022-07-25T18:41:18.891Z,23.62
2022-07-25T18:43:41.803Z,23.60
2022-07-25T18:46:08.929Z,23.51
2022-07-25T18:48:36.390Z,23.52
2022-07-25T18:51:03.032Z,23.53
2022-07-25T18:53:31.805Z,23.57
2022-07-25T18:55:58.815Z,23.55
2022-07-25T18:58:25.598Z,23.37
2022-07-25T19:00:52.204Z,23.52
2022-07-25T19:03:18.778Z,23.48
2022-07-25T19:05:45.549Z,23.47
2022-07-25T19:08:13.059Z,23.41
2022-07-25T19:10:40.967Z,23.38
2022-07-25T19:13:08.097Z,23.15
2022-07-25T19:15:35.479Z,23.27
2022-07-25T19:18:05.610Z,23.18
2022-07-25T19:20:32.343Z,23.03
2022-07-25T19:22:58.970Z,23.13
2022-07-25T19:25:25.523Z,23.05
2022-07-25T19:27:52.327Z,22.94
2022-07-25T19:30:21.438Z,22.93
2022-07-25T19:32:50.799Z,22.85
2022-07-25T19:35:25.602Z,22.78
2022-07-25T19:37:52.754Z,22.72
2022-07-25T19:40:19.590Z,22.72
2022-07-25T19:42:46.127Z,22.70
2022-07-25T19:45:12.767Z,22.67
2022-07-25T19:47:39.406Z,22.66
2022-07-25T19:50:06.456Z,22.62
2022-07-25T19:52:33.032Z,22.67
2022-07-25T19:55:01.743Z,22.67
2022-07-25T19:57:29.514Z,22.60
2022-07-25T19:59:56.027Z,22.61
2022-07-25T20:02:22.617Z,22.59
2022-07-25T20:04:49.223Z,22.53
2022-07-25T20:07:15.803Z,22.52
2022-07-25T20:09:44.919Z,22.48
2022-07-25T20:12:14.125Z,22.51
2022-07-25T20:14:42.857Z,22.47
2022-07-25T20:17:12.017Z,22.41
2022-07-25T20:19:38.925Z,22.41
2022-07-25T20:22:06.096Z,22.39
2022-07-25T20:24:32.780Z,22.35
2022-07-25T20:26:59.523Z,22.28
2022-07-25T20:31:54.010Z,22.25
2022-07-25T20:34:20.705Z,22.01
2022-07-25T20:36:47.509Z,22.19
2022-07-25T20:39:14.330Z,22.16
2022-07-25T20:41:43.381Z,22.13
2022-07-25T20:44:11.587Z,22.09
2022-07-25T20:46:39.064Z,22.02
2022-07-25T20:49:09.009Z,21.97
2022-07-25T20:51:37.515Z,21.90
2022-07-25T20:54:06.922Z,21.81
2022-07-25T20:56:35.838Z,21.75
2022-07-25T20:59:04.641Z,21.67
2022-07-25T21:01:31.405Z,21.59
2022-07-25T21:03:58.103Z,21.53
2022-07-25T21:06:27.176Z,21.48
2022-07-25T21:08:56.414Z,21.37
2022-07-25T21:11:23.549Z,21.31
2022-07-25T21:13:50.455Z,21.20
2022-07-25T21:16:17.544Z,21.13
2022-07-25T21:18:46.524Z,21.12
2022-07-25T21:21:13.099Z,21.06
2022-07-25T21:23:43.086Z,21.03
2022-07-25T21:26:13.100Z,20.95
2022-07-25T21:28:39.718Z,20.94
2022-07-25T21:31:08.428Z,20.92
2022-07-25T21:33:35.067Z,20.89
2022-07-25T21:36:01.748Z,20.80
2022-07-25T21:38:30.358Z,20.77
2022-07-25T21:40:59.059Z,20.73
2022-07-25T21:43:25.777Z,20.68
2022-07-25T21:45:52.824Z,20.68
2022-07-25T21:48:39.478Z,20.62
2022-07-25T21:51:09.813Z,20.58
2022-07-25T21:53:48.135Z,20.52
2022-07-25T21:56:21.882Z,20.49
2022-07-25T21:58:49.003Z,20.43
2022-07-25T22:01:18.091Z,20.43
2022-07-25T22:03:44.920Z,20.43
2022-07-25T22:06:11.632Z,20.39
2022-07-25T22:08:39.437Z,20.37
2022-07-25T22:11:15.710Z,20.33
2022-07-25T22:13:47.538Z,20.35
2022-07-25T22:16:14.177Z,20.32
2022-07-25T22:18:40.821Z,20.28
2022-07-25T22:21:07.558Z,19.91
2022-07-25T22:23:38.916Z,20.21
2022-07-25T22:26:05.554Z,20.13
2022-07-25T22:28:32.248Z,20.09
2022-07-25T22:30:59.159Z,20.08
2022-07-25T22:33:28.572Z,20.00
2022-07-25T22:35:55.201Z,20.00
2022-07-25T22:38:21.734Z,19.98
2022-07-25T22:40:48.276Z,19.89
2022-07-25T22:43:14.839Z,19.94
2022-07-25T22:45:43.166Z,19.94
2022-07-25T22:48:09.810Z,19.83
2022-07-25T22:50:36.342Z,19.83
2022-07-25T22:53:03.406Z,19.82
2022-07-25T22:55:32.446Z,19.81
2022-07-25T22:57:58.972Z,19.78
2022-07-25T23:00:25.652Z,19.79
2022-07-25T23:02:52.301Z,19.77
2022-07-25T23:05:18.952Z,19.83
2022-07-25T23:07:45.705Z,19.88
2022-07-25T23:10:12.487Z,19.93
2022-07-25T23:12:41.256Z,19.95
2022-07-25T23:15:08.620Z,20.02
2022-07-25T23:17:35.286Z,20.04
2022-07-25T23:20:02.161Z,20.04
2022-07-25T23:22:30.099Z,20.02
2022-07-25T23:24:56.976Z,20.11
2022-07-25T23:27:23.710Z,20.09
2022-07-25T23:29:50.862Z,20.08
2022-07-25T23:32:17.823Z,20.04
2022-07-25T23:34:45.357Z,20.07
2022-07-25T23:37:12.008Z,20.07
2022-07-25T23:39:38.570Z,20.04
2022-07-25T23:42:05.222Z,20.04
2022-07-25T23:44:31.947Z,20.03
2022-07-25T23:46:59.964Z,19.98
2022-07-25T23:49:28.248Z,20.00
2022-07-25T23:51:57.139Z,19.98
2022-07-25T23:54:24.422Z,19.99
2022-07-25T23:56:51.701Z,19.97
2022-07-25T23:59:18.896Z,19.94
